sensor_id;sensor_type;location;lat;lon;timestamp;P1;durP1;ratioP1;P2;durP2;ratioP2
8694;SDS011;65580;49.446;6.854;2023-02-11T00:00:17;66.72;;;24.30;;
8694;SDS011;65580;49.446;6.854;2023-02-11T00:04:26;93.22;;;32.03;;
8694;SDS011;65580;49.446;6.854;2023-02-11T00:08:33;80.75;;;27.83;;
8694;SDS011;65580;49.446;6.854;2023-02-11T00:12:39;76.97;;;26.65;;
8694;SDS011;65580;49.446;6.854;2023-02-11T00:16:43;71.78;;;26.27;;
8694;SDS011;65580;49.446;6.854;2023-02-11T00:20:54;82.45;;;28.70;;
8694;SDS011;65580;49.446;6.854;2023-02-11T00:24:58;136.48;;;40.13;;
8694;SDS011;65580;49.446;6.854;2023-02-11T00:29:02;77.10;;;27.48;;
8694;SDS011;65580;49.446;6.854;2023-02-11T00:33:07;71.70;;;25.63;;
8694;SDS011;65580;49.446;6.854;2023-02-11T00:37:16;69.22;;;26.27;;
8694;SDS011;65580;49.446;6.854;2023-02-11T00:41:20;76.38;;;26.95;;
8694;SDS011;65580;49.446;6.854;2023-02-11T00:45:35;69.28;;;25.30;;
8694;SDS011;65580;49.446;6.854;2023-02-11T00:49:38;73.47;;;26.08;;
8694;SDS011;65580;49.446;6.854;2023-02-11T00:53:43;66.75;;;24.27;;
8694;SDS011;65580;49.446;6.854;2023-02-11T00:57:47;72.32;;;25.83;;
8694;SDS011;65580;49.446;6.854;2023-02-11T01:01:51;72.15;;;24.52;;
8694;SDS011;65580;49.446;6.854;2023-02-11T01:05:55;68.68;;;25.17;;
8694;SDS011;65580;49.446;6.854;2023-02-11T01:10:01;89.80;;;31.40;;
8694;SDS011;65580;49.446;6.854;2023-02-11T01:14:17;61.88;;;23.58;;
8694;SDS011;65580;49.446;6.854;2023-02-11T01:18:21;64.65;;;24.75;;
8694;SDS011;65580;49.446;6.854;2023-02-11T01:22:34;63.97;;;24.65;;
8694;SDS011;65580;49.446;6.854;2023-02-11T01:26:42;75.65;;;28.30;;
8694;SDS011;65580;49.446;6.854;2023-02-11T01:30:50;89.03;;;32.35;;
8694;SDS011;65580;49.446;6.854;2023-02-11T01:34:54;98.13;;;32.72;;
8694;SDS011;65580;49.446;6.854;2023-02-11T01:38:58;66.40;;;24.08;;
8694;SDS011;65580;49.446;6.854;2023-02-11T01:43:05;72.25;;;27.70;;
8694;SDS011;65580;49.446;6.854;2023-02-11T01:47:09;68.03;;;24.35;;
8694;SDS011;65580;49.446;6.854;2023-02-11T01:51:13;78.03;;;27.20;;
8694;SDS011;65580;49.446;6.854;2023-02-11T01:55:23;90.80;;;32.00;;
8694;SDS011;65580;49.446;6.854;2023-02-11T01:59:46;74.30;;;26.73;;
8694;SDS011;65580;49.446;6.854;2023-02-11T02:03:55;72.65;;;27.63;;
8694;SDS011;65580;49.446;6.854;2023-02-11T02:08:23;65.32;;;24.52;;
8694;SDS011;65580;49.446;6.854;2023-02-11T02:12:32;68.00;;;25.20;;
8694;SDS011;65580;49.446;6.854;2023-02-11T02:16:37;71.68;;;25.80;;
8694;SDS011;65580;49.446;6.854;2023-02-11T02:25:44;67.00;;;24.10;;
8694;SDS011;65580;49.446;6.854;2023-02-11T02:30:07;84.60;;;28.90;;
8694;SDS011;65580;49.446;6.854;2023-02-11T02:34:26;65.65;;;25.50;;
8694;SDS011;65580;49.446;6.854;2023-02-11T02:38:33;66.43;;;24.92;;
8694;SDS011;65580;49.446;6.854;2023-02-11T02:42:40;62.80;;;25.15;;
8694;SDS011;65580;49.446;6.854;2023-02-11T02:46:44;64.70;;;25.35;;
8694;SDS011;65580;49.446;6.854;2023-02-11T02:50:52;64.70;;;25.10;;
8694;SDS011;65580;49.446;6.854;2023-02-11T02:59:42;76.60;;;25.88;;
8694;SDS011;65580;49.446;6.854;2023-02-11T03:04:00;74.13;;;27.33;;
8694;SDS011;65580;49.446;6.854;2023-02-11T03:08:11;85.68;;;29.52;;
8694;SDS011;65580;49.446;6.854;2023-02-11T03:12:22;72.53;;;26.05;;
8694;SDS011;65580;49.446;6.854;2023-02-11T03:16:27;61.95;;;24.02;;
8694;SDS011;65580;49.446;6.854;2023-02-11T03:20:36;59.72;;;22.98;;
8694;SDS011;65580;49.446;6.854;2023-02-11T03:24:45;84.93;;;29.45;;
8694;SDS011;65580;49.446;6.854;2023-02-11T03:28:50;107.80;;;32.85;;
8694;SDS011;65580;49.446;6.854;2023-02-11T03:32:58;111.25;;;34.90;;
8694;SDS011;65580;49.446;6.854;2023-02-11T03:37:06;66.65;;;24.52;;
8694;SDS011;65580;49.446;6.854;2023-02-11T03:41:15;97.03;;;33.33;;
8694;SDS011;65580;49.446;6.854;2023-02-11T03:45:27;69.93;;;26.42;;
8694;SDS011;65580;49.446;6.854;2023-02-11T03:49:34;70.25;;;25.73;;
8694;SDS011;65580;49.446;6.854;2023-02-11T03:53:39;64.72;;;24.92;;
8694;SDS011;65580;49.446;6.854;2023-02-11T03:57:46;63.15;;;23.35;;
8694;SDS011;65580;49.446;6.854;2023-02-11T04:01:49;99.00;;;32.33;;
8694;SDS011;65580;49.446;6.854;2023-02-11T04:05:53;76.35;;;27.58;;
8694;SDS011;65580;49.446;6.854;2023-02-11T04:09:56;63.15;;;25.13;;
8694;SDS011;65580;49.446;6.854;2023-02-11T04:14:05;66.95;;;25.15;;
8694;SDS011;65580;49.446;6.854;2023-02-11T04:18:12;66.03;;;24.48;;
8694;SDS011;65580;49.446;6.854;2023-02-11T04:22:16;68.97;;;25.58;;
8694;SDS011;65580;49.446;6.854;2023-02-11T04:26:23;58.33;;;23.35;;
8694;SDS011;65580;49.446;6.854;2023-02-11T04:30:31;62.35;;;24.42;;
8694;SDS011;65580;49.446;6.854;2023-02-11T04:34:37;55.58;;;21.95;;
8694;SDS011;65580;49.446;6.854;2023-02-11T04:38:41;64.85;;;25.63;;
8694;SDS011;65580;49.446;6.854;2023-02-11T04:42:44;63.80;;;24.00;;
8694;SDS011;65580;49.446;6.854;2023-02-11T04:46:49;69.68;;;24.60;;
8694;SDS011;65580;49.446;6.854;2023-02-11T04:50:53;68.90;;;25.60;;
8694;SDS011;65580;49.446;6.854;2023-02-11T04:54:57;63.03;;;23.75;;
8694;SDS011;65580;49.446;6.854;2023-02-11T04:59:01;77.25;;;27.52;;
8694;SDS011;65580;49.446;6.854;2023-02-11T05:03:07;60.90;;;23.17;;
8694;SDS011;65580;49.446;6.854;2023-02-11T05:07:10;60.50;;;23.58;;
8694;SDS011;65580;49.446;6.854;2023-02-11T05:11:15;71.00;;;26.67;;
8694;SDS011;65580;49.446;6.854;2023-02-11T05:15:20;93.55;;;32.00;;
8694;SDS011;65580;49.446;6.854;2023-02-11T05:19:27;64.68;;;23.88;;
8694;SDS011;65580;49.446;6.854;2023-02-11T05:23:31;64.72;;;23.23;;
8694;SDS011;65580;49.446;6.854;2023-02-11T05:27:36;62.30;;;24.02;;
8694;SDS011;65580;49.446;6.854;2023-02-11T05:31:41;63.70;;;24.38;;
8694;SDS011;65580;49.446;6.854;2023-02-11T05:35:47;65.20;;;24.48;;
8694;SDS011;65580;49.446;6.854;2023-02-11T05:39:53;76.55;;;27.02;;
8694;SDS011;65580;49.446;6.854;2023-02-11T05:43:57;88.80;;;29.65;;
8694;SDS011;65580;49.446;6.854;2023-02-11T05:48:13;75.10;;;28.30;;
8694;SDS011;65580;49.446;6.854;2023-02-11T05:52:20;84.85;;;28.77;;
8694;SDS011;65580;49.446;6.854;2023-02-11T05:56:23;79.68;;;27.85;;
8694;SDS011;65580;49.446;6.854;2023-02-11T06:00:27;86.43;;;30.95;;
8694;SDS011;65580;49.446;6.854;2023-02-11T06:04:32;57.63;;;22.35;;
8694;SDS011;65580;49.446;6.854;2023-02-11T06:08:38;79.80;;;27.90;;
8694;SDS011;65580;49.446;6.854;2023-02-11T06:12:42;65.93;;;24.00;;
8694;SDS011;65580;49.446;6.854;2023-02-11T06:16:46;53.38;;;20.13;;
8694;SDS011;65580;49.446;6.854;2023-02-11T06:20:50;73.80;;;26.75;;
8694;SDS011;65580;49.446;6.854;2023-02-11T06:24:59;82.43;;;28.38;;
8694;SDS011;65580;49.446;6.854;2023-02-11T06:29:05;68.35;;;24.67;;
8694;SDS011;65580;49.446;6.854;2023-02-11T06:33:08;59.00;;;22.92;;
8694;SDS011;65580;49.446;6.854;2023-02-11T06:37:11;54.38;;;21.50;;
8694;SDS011;65580;49.446;6.854;2023-02-11T06:41:17;56.05;;;21.88;;
8694;SDS011;65580;49.446;6.854;2023-02-11T06:45:21;57.28;;;21.63;;
8694;SDS011;65580;49.446;6.854;2023-02-11T06:49:24;55.13;;;21.42;;
8694;SDS011;65580;49.446;6.854;2023-02-11T06:53:31;70.13;;;27.98;;
8694;SDS011;65580;49.446;6.854;2023-02-11T06:57:38;60.65;;;23.58;;
8694;SDS011;65580;49.446;6.854;2023-02-11T07:05:45;50.75;;;19.20;;
8694;SDS011;65580;49.446;6.854;2023-02-11T07:09:52;51.47;;;19.52;;
8694;SDS011;65580;49.446;6.854;2023-02-11T07:14:08;49.00;;;19.30;;
8694;SDS011;65580;49.446;6.854;2023-02-11T07:18:23;53.58;;;20.60;;
8694;SDS011;65580;49.446;6.854;2023-02-11T07:22:29;43.22;;;18.60;;
8694;SDS011;65580;49.446;6.854;2023-02-11T07:26:33;46.67;;;18.92;;
8694;SDS011;65580;49.446;6.854;2023-02-11T07:30:40;47.92;;;19.83;;
8694;SDS011;65580;49.446;6.854;2023-02-11T07:34:43;45.65;;;19.67;;
8694;SDS011;65580;49.446;6.854;2023-02-11T07:38:49;49.42;;;18.67;;
8694;SDS011;65580;49.446;6.854;2023-02-11T07:42:55;53.97;;;21.85;;
8694;SDS011;65580;49.446;6.854;2023-02-11T07:47:00;57.25;;;22.35;;
8694;SDS011;65580;49.446;6.854;2023-02-11T07:51:05;60.15;;;24.50;;
8694;SDS011;65580;49.446;6.854;2023-02-11T07:55:10;79.10;;;28.17;;
8694;SDS011;65580;49.446;6.854;2023-02-11T07:59:14;58.00;;;23.65;;
8694;SDS011;65580;49.446;6.854;2023-02-11T08:03:22;61.95;;;25.40;;
8694;SDS011;65580;49.446;6.854;2023-02-11T08:07:27;60.45;;;23.15;;
8694;SDS011;65580;49.446;6.854;2023-02-11T08:11:31;61.58;;;25.05;;
8694;SDS011;65580;49.446;6.854;2023-02-11T08:15:44;64.32;;;24.45;;
8694;SDS011;65580;49.446;6.854;2023-02-11T08:19:50;65.15;;;24.58;;
8694;SDS011;65580;49.446;6.854;2023-02-11T08:23:57;66.75;;;25.23;;
8694;SDS011;65580;49.446;6.854;2023-02-11T08:28:01;62.58;;;24.02;;
8694;SDS011;65580;49.446;6.854;2023-02-11T08:32:11;61.33;;;24.52;;
8694;SDS011;65580;49.446;6.854;2023-02-11T08:36:24;66.53;;;25.60;;
8694;SDS011;65580;49.446;6.854;2023-02-11T08:40:30;55.67;;;21.33;;
8694;SDS011;65580;49.446;6.854;2023-02-11T08:44:35;54.78;;;21.05;;
8694;SDS011;65580;49.446;6.854;2023-02-11T08:48:42;59.38;;;22.13;;
8694;SDS011;65580;49.446;6.854;2023-02-11T08:52:49;43.67;;;18.48;;
8694;SDS011;65580;49.446;6.854;2023-02-11T08:56:56;35.90;;;15.77;;
8694;SDS011;65580;49.446;6.854;2023-02-11T09:01:07;36.38;;;14.27;;
8694;SDS011;65580;49.446;6.854;2023-02-11T09:05:17;57.50;;;21.88;;
8694;SDS011;65580;49.446;6.854;2023-02-11T09:09:26;32.55;;;13.80;;
8694;SDS011;65580;49.446;6.854;2023-02-11T09:13:31;34.85;;;14.15;;
8694;SDS011;65580;49.446;6.854;2023-02-11T09:17:36;34.60;;;14.27;;
8694;SDS011;65580;49.446;6.854;2023-02-11T09:21:45;33.92;;;14.02;;
8694;SDS011;65580;49.446;6.854;2023-02-11T09:25:54;40.92;;;17.00;;
8694;SDS011;65580;49.446;6.854;2023-02-11T09:30:02;43.00;;;16.10;;
8694;SDS011;65580;49.446;6.854;2023-02-11T09:34:06;32.60;;;13.70;;
8694;SDS011;65580;49.446;6.854;2023-02-11T09:38:12;36.10;;;13.75;;
8694;SDS011;65580;49.446;6.854;2023-02-11T09:46:51;40.10;;;14.50;;
8694;SDS011;65580;49.446;6.854;2023-02-11T09:50:57;37.10;;;14.48;;
8694;SDS011;65580;49.446;6.854;2023-02-11T09:55:03;30.45;;;10.95;;
8694;SDS011;65580;49.446;6.854;2023-02-11T09:59:15;34.30;;;13.98;;
8694;SDS011;65580;49.446;6.854;2023-02-11T10:07:55;37.83;;;14.88;;
8694;SDS011;65580;49.446;6.854;2023-02-11T10:12:09;30.75;;;13.93;;
8694;SDS011;65580;49.446;6.854;2023-02-11T10:16:26;31.20;;;12.70;;
8694;SDS011;65580;49.446;6.854;2023-02-11T10:20:44;39.13;;;14.07;;
8694;SDS011;65580;49.446;6.854;2023-02-11T10:25:07;39.13;;;14.55;;
8694;SDS011;65580;49.446;6.854;2023-02-11T10:29:23;38.78;;;15.27;;
8694;SDS011;65580;49.446;6.854;2023-02-11T10:33:35;39.95;;;14.48;;
8694;SDS011;65580;49.446;6.854;2023-02-11T10:37:44;38.70;;;14.35;;
8694;SDS011;65580;49.446;6.854;2023-02-11T10:41:49;40.28;;;14.60;;
8694;SDS011;65580;49.446;6.854;2023-02-11T10:45:54;36.20;;;15.02;;
8694;SDS011;65580;49.446;6.854;2023-02-11T10:50:03;43.65;;;15.75;;
8694;SDS011;65580;49.446;6.854;2023-02-11T10:54:21;36.75;;;15.93;;
8694;SDS011;65580;49.446;6.854;2023-02-11T10:58:28;43.22;;;14.32;;
8694;SDS011;65580;49.446;6.854;2023-02-11T11:02:35;43.63;;;14.98;;
8694;SDS011;65580;49.446;6.854;2023-02-11T11:06:46;39.88;;;14.02;;
8694;SDS011;65580;49.446;6.854;2023-02-11T11:11:00;38.22;;;15.05;;
8694;SDS011;65580;49.446;6.854;2023-02-11T11:15:15;33.08;;;11.57;;
8694;SDS011;65580;49.446;6.854;2023-02-11T11:19:23;31.40;;;13.35;;
8694;SDS011;65580;49.446;6.854;2023-02-11T11:27:31;31.08;;;13.35;;
8694;SDS011;65580;49.446;6.854;2023-02-11T11:31:35;45.75;;;17.17;;
8694;SDS011;65580;49.446;6.854;2023-02-11T11:35:54;38.58;;;13.23;;
8694;SDS011;65580;49.446;6.854;2023-02-11T11:40:07;38.08;;;13.88;;
8694;SDS011;65580;49.446;6.854;2023-02-11T11:44:17;43.35;;;14.80;;
8694;SDS011;65580;49.446;6.854;2023-02-11T11:48:27;34.35;;;14.02;;
8694;SDS011;65580;49.446;6.854;2023-02-11T11:52:39;37.70;;;13.77;;
8694;SDS011;65580;49.446;6.854;2023-02-11T11:56:55;40.13;;;14.88;;
8694;SDS011;65580;49.446;6.854;2023-02-11T12:01:11;35.35;;;13.35;;
8694;SDS011;65580;49.446;6.854;2023-02-11T12:05:24;39.30;;;14.52;;
8694;SDS011;65580;49.446;6.854;2023-02-11T12:09:36;35.95;;;14.05;;
8694;SDS011;65580;49.446;6.854;2023-02-11T12:13:52;39.60;;;14.07;;
8694;SDS011;65580;49.446;6.854;2023-02-11T12:18:13;38.35;;;14.45;;
8694;SDS011;65580;49.446;6.854;2023-02-11T12:22:23;40.22;;;15.15;;
8694;SDS011;65580;49.446;6.854;2023-02-11T12:26:34;34.75;;;13.88;;
8694;SDS011;65580;49.446;6.854;2023-02-11T12:30:51;32.97;;;14.15;;
8694;SDS011;65580;49.446;6.854;2023-02-11T12:39:31;32.28;;;12.75;;
8694;SDS011;65580;49.446;6.854;2023-02-11T12:43:36;32.97;;;12.77;;
8694;SDS011;65580;49.446;6.854;2023-02-11T12:47:44;29.13;;;11.57;;
8694;SDS011;65580;49.446;6.854;2023-02-11T12:51:57;27.85;;;11.20;;
8694;SDS011;65580;49.446;6.854;2023-02-11T12:56:08;25.15;;;10.18;;
8694;SDS011;65580;49.446;6.854;2023-02-11T13:00:17;29.05;;;10.13;;
8694;SDS011;65580;49.446;6.854;2023-02-11T13:04:27;28.20;;;11.00;;
8694;SDS011;65580;49.446;6.854;2023-02-11T13:08:36;27.05;;;9.80;;
8694;SDS011;65580;49.446;6.854;2023-02-11T13:12:42;31.60;;;11.75;;
8694;SDS011;65580;49.446;6.854;2023-02-11T13:17:07;25.92;;;10.13;;
8694;SDS011;65580;49.446;6.854;2023-02-11T13:25:51;25.88;;;9.68;;
8694;SDS011;65580;49.446;6.854;2023-02-11T13:39:02;24.60;;;9.10;;
8694;SDS011;65580;49.446;6.854;2023-02-11T13:43:18;22.48;;;9.13;;
8694;SDS011;65580;49.446;6.854;2023-02-11T13:47:30;22.40;;;8.43;;
8694;SDS011;65580;49.446;6.854;2023-02-11T13:51:36;21.15;;;7.80;;
8694;SDS011;65580;49.446;6.854;2023-02-11T13:55:44;23.83;;;8.90;;
8694;SDS011;65580;49.446;6.854;2023-02-11T13:59:48;24.15;;;9.40;;
8694;SDS011;65580;49.446;6.854;2023-02-11T14:04:05;23.70;;;8.93;;
8694;SDS011;65580;49.446;6.854;2023-02-11T14:13:18;19.17;;;8.07;;
8694;SDS011;65580;49.446;6.854;2023-02-11T14:17:30;18.30;;;7.90;;
8694;SDS011;65580;49.446;6.854;2023-02-11T14:21:35;21.52;;;8.20;;
8694;SDS011;65580;49.446;6.854;2023-02-11T14:25:40;25.15;;;8.65;;
8694;SDS011;65580;49.446;6.854;2023-02-11T14:29:48;22.38;;;9.75;;
8694;SDS011;65580;49.446;6.854;2023-02-11T14:34:03;26.30;;;9.00;;
8694;SDS011;65580;49.446;6.854;2023-02-11T14:38:16;21.25;;;7.50;;
8694;SDS011;65580;49.446;6.854;2023-02-11T14:42:24;19.27;;;7.40;;
8694;SDS011;65580;49.446;6.854;2023-02-11T14:46:30;22.15;;;7.75;;
8694;SDS011;65580;49.446;6.854;2023-02-11T14:50:37;19.10;;;8.10;;
8694;SDS011;65580;49.446;6.854;2023-02-11T14:54:46;21.27;;;8.20;;
8694;SDS011;65580;49.446;6.854;2023-02-11T14:58:52;20.98;;;9.27;;
8694;SDS011;65580;49.446;6.854;2023-02-11T15:02:58;20.83;;;8.63;;
8694;SDS011;65580;49.446;6.854;2023-02-11T15:07:02;23.92;;;8.30;;
8694;SDS011;65580;49.446;6.854;2023-02-11T15:11:13;24.33;;;9.43;;
8694;SDS011;65580;49.446;6.854;2023-02-11T15:15:20;23.23;;;8.88;;
8694;SDS011;65580;49.446;6.854;2023-02-11T15:19:27;21.58;;;8.05;;
8694;SDS011;65580;49.446;6.854;2023-02-11T15:23:36;25.40;;;9.15;;
8694;SDS011;65580;49.446;6.854;2023-02-11T15:27:47;28.95;;;10.73;;
8694;SDS011;65580;49.446;6.854;2023-02-11T15:32:05;27.17;;;10.82;;
8694;SDS011;65580;49.446;6.854;2023-02-11T15:36:18;24.65;;;9.32;;
8694;SDS011;65580;49.446;6.854;2023-02-11T15:40:24;26.35;;;9.65;;
8694;SDS011;65580;49.446;6.854;2023-02-11T15:44:31;24.67;;;9.73;;
8694;SDS011;65580;49.446;6.854;2023-02-11T15:48:40;29.42;;;10.20;;
8694;SDS011;65580;49.446;6.854;2023-02-11T15:52:46;24.83;;;9.75;;
8694;SDS011;65580;49.446;6.854;2023-02-11T15:56:58;31.17;;;11.43;;
8694;SDS011;65580;49.446;6.854;2023-02-11T16:01:02;32.00;;;11.48;;
8694;SDS011;65580;49.446;6.854;2023-02-11T16:05:08;31.50;;;11.40;;
8694;SDS011;65580;49.446;6.854;2023-02-11T16:09:31;33.25;;;11.80;;
8694;SDS011;65580;49.446;6.854;2023-02-11T16:13:42;28.63;;;10.70;;
8694;SDS011;65580;49.446;6.854;2023-02-11T16:17:50;26.00;;;10.20;;
8694;SDS011;65580;49.446;6.854;2023-02-11T16:21:55;27.98;;;10.13;;
8694;SDS011;65580;49.446;6.854;2023-02-11T16:26:03;24.73;;;10.18;;
8694;SDS011;65580;49.446;6.854;2023-02-11T16:30:20;28.60;;;9.93;;
8694;SDS011;65580;49.446;6.854;2023-02-11T16:34:30;36.75;;;13.57;;
8694;SDS011;65580;49.446;6.854;2023-02-11T16:38:34;29.73;;;11.05;;
8694;SDS011;65580;49.446;6.854;2023-02-11T16:42:39;24.85;;;10.88;;
8694;SDS011;65580;49.446;6.854;2023-02-11T16:46:46;37.42;;;14.93;;
8694;SDS011;65580;49.446;6.854;2023-02-11T16:50:49;29.90;;;11.32;;
8694;SDS011;65580;49.446;6.854;2023-02-11T16:54:57;34.95;;;12.77;;
8694;SDS011;65580;49.446;6.854;2023-02-11T16:59:04;41.70;;;13.23;;
8694;SDS011;65580;49.446;6.854;2023-02-11T17:07:10;39.45;;;14.32;;
8694;SDS011;65580;49.446;6.854;2023-02-11T17:11:13;41.60;;;14.50;;
8694;SDS011;65580;49.446;6.854;2023-02-11T17:19:22;40.30;;;13.63;;
8694;SDS011;65580;49.446;6.854;2023-02-11T17:23:26;43.08;;;15.32;;
8694;SDS011;65580;49.446;6.854;2023-02-11T17:27:32;48.13;;;16.88;;
8694;SDS011;65580;49.446;6.854;2023-02-11T17:31:38;47.53;;;15.93;;
8694;SDS011;65580;49.446;6.854;2023-02-11T17:35:42;54.92;;;17.35;;
8694;SDS011;65580;49.446;6.854;2023-02-11T17:39:45;44.00;;;15.57;;
8694;SDS011;65580;49.446;6.854;2023-02-11T17:43:52;44.60;;;15.65;;
8694;SDS011;65580;49.446;6.854;2023-02-11T17:47:57;54.97;;;18.10;;
8694;SDS011;65580;49.446;6.854;2023-02-11T17:52:01;49.05;;;15.93;;
8694;SDS011;65580;49.446;6.854;2023-02-11T17:56:07;39.50;;;15.00;;
8694;SDS011;65580;49.446;6.854;2023-02-11T18:00:11;40.50;;;14.80;;
8694;SDS011;65580;49.446;6.854;2023-02-11T18:04:17;60.03;;;20.33;;
8694;SDS011;65580;49.446;6.854;2023-02-11T18:08:21;45.58;;;17.90;;
8694;SDS011;65580;49.446;6.854;2023-02-11T18:12:30;44.40;;;16.80;;
8694;SDS011;65580;49.446;6.854;2023-02-11T18:16:35;52.05;;;17.23;;
8694;SDS011;65580;49.446;6.854;2023-02-11T18:20:45;62.28;;;19.00;;
8694;SDS011;65580;49.446;6.854;2023-02-11T18:25:00;67.82;;;21.65;;
8694;SDS011;65580;49.446;6.854;2023-02-11T18:29:07;51.85;;;17.70;;
8694;SDS011;65580;49.446;6.854;2023-02-11T18:33:14;43.50;;;15.98;;
8694;SDS011;65580;49.446;6.854;2023-02-11T18:37:25;44.80;;;15.95;;
8694;SDS011;65580;49.446;6.854;2023-02-11T18:41:32;38.70;;;14.45;;
8694;SDS011;65580;49.446;6.854;2023-02-11T18:45:35;38.22;;;15.20;;
8694;SDS011;65580;49.446;6.854;2023-02-11T18:49:40;54.22;;;17.73;;
8694;SDS011;65580;49.446;6.854;2023-02-11T18:53:45;48.72;;;17.25;;
8694;SDS011;65580;49.446;6.854;2023-02-11T18:57:49;45.13;;;16.48;;
8694;SDS011;65580;49.446;6.854;2023-02-11T19:01:54;55.33;;;17.48;;
8694;SDS011;65580;49.446;6.854;2023-02-11T19:05:59;65.18;;;20.15;;
8694;SDS011;65580;49.446;6.854;2023-02-11T19:10:08;58.40;;;19.67;;
8694;SDS011;65580;49.446;6.854;2023-02-11T19:14:15;64.28;;;19.17;;
8694;SDS011;65580;49.446;6.854;2023-02-11T19:18:23;74.85;;;21.73;;
8694;SDS011;65580;49.446;6.854;2023-02-11T19:22:27;68.38;;;19.85;;
8694;SDS011;65580;49.446;6.854;2023-02-11T19:26:33;50.70;;;18.05;;
8694;SDS011;65580;49.446;6.854;2023-02-11T19:30:37;49.38;;;17.48;;
8694;SDS011;65580;49.446;6.854;2023-02-11T19:34:41;76.80;;;22.05;;
8694;SDS011;65580;49.446;6.854;2023-02-11T19:38:44;69.68;;;20.42;;
8694;SDS011;65580;49.446;6.854;2023-02-11T19:42:50;44.42;;;17.15;;
8694;SDS011;65580;49.446;6.854;2023-02-11T19:46:54;57.15;;;19.45;;
8694;SDS011;65580;49.446;6.854;2023-02-11T19:50:57;71.35;;;21.88;;
8694;SDS011;65580;49.446;6.854;2023-02-11T19:55:01;52.47;;;18.00;;
8694;SDS011;65580;49.446;6.854;2023-02-11T19:59:06;66.25;;;21.02;;
8694;SDS011;65580;49.446;6.854;2023-02-11T20:03:10;74.45;;;22.30;;
8694;SDS011;65580;49.446;6.854;2023-02-11T20:07:13;42.35;;;16.08;;
8694;SDS011;65580;49.446;6.854;2023-02-11T20:11:17;50.65;;;16.63;;
8694;SDS011;65580;49.446;6.854;2023-02-11T20:15:22;46.97;;;16.25;;
8694;SDS011;65580;49.446;6.854;2023-02-11T20:19:26;44.97;;;17.00;;
8694;SDS011;65580;49.446;6.854;2023-02-11T20:23:31;44.38;;;17.65;;
8694;SDS011;65580;49.446;6.854;2023-02-11T20:27:34;43.92;;;15.88;;
8694;SDS011;65580;49.446;6.854;2023-02-11T20:31:39;42.67;;;16.13;;
8694;SDS011;65580;49.446;6.854;2023-02-11T20:35:44;57.97;;;19.52;;
8694;SDS011;65580;49.446;6.854;2023-02-11T20:39:47;63.55;;;19.98;;
8694;SDS011;65580;49.446;6.854;2023-02-11T20:43:52;81.93;;;23.30;;
8694;SDS011;65580;49.446;6.854;2023-02-11T20:47:58;59.75;;;20.13;;
8694;SDS011;65580;49.446;6.854;2023-02-11T20:52:03;56.72;;;18.70;;
8694;SDS011;65580;49.446;6.854;2023-02-11T20:56:09;62.88;;;19.80;;
8694;SDS011;65580;49.446;6.854;2023-02-11T21:00:16;70.43;;;21.13;;
8694;SDS011;65580;49.446;6.854;2023-02-11T21:04:23;75.53;;;22.23;;
8694;SDS011;65580;49.446;6.854;2023-02-11T21:08:27;77.75;;;23.30;;
8694;SDS011;65580;49.446;6.854;2023-02-11T21:12:31;75.05;;;21.10;;
8694;SDS011;65580;49.446;6.854;2023-02-11T21:16:34;74.82;;;22.80;;
8694;SDS011;65580;49.446;6.854;2023-02-11T21:20:40;80.13;;;21.15;;
8694;SDS011;65580;49.446;6.854;2023-02-11T21:24:46;78.20;;;21.85;;
8694;SDS011;65580;49.446;6.854;2023-02-11T21:28:52;101.57;;;25.23;;
8694;SDS011;65580;49.446;6.854;2023-02-11T21:32:56;98.10;;;24.67;;
8694;SDS011;65580;49.446;6.854;2023-02-11T21:37:06;79.68;;;23.27;;
8694;SDS011;65580;49.446;6.854;2023-02-11T21:41:13;54.67;;;17.80;;
8694;SDS011;65580;49.446;6.854;2023-02-11T21:45:20;60.55;;;20.58;;
8694;SDS011;65580;49.446;6.854;2023-02-11T21:49:27;66.25;;;21.00;;
8694;SDS011;65580;49.446;6.854;2023-02-11T21:53:39;87.50;;;24.20;;
8694;SDS011;65580;49.446;6.854;2023-02-11T21:57:43;66.70;;;20.00;;
8694;SDS011;65580;49.446;6.854;2023-02-11T22:01:46;92.95;;;25.10;;
8694;SDS011;65580;49.446;6.854;2023-02-11T22:05:51;73.65;;;21.23;;
8694;SDS011;65580;49.446;6.854;2023-02-11T22:09:58;76.97;;;22.38;;
8694;SDS011;65580;49.446;6.854;2023-02-11T22:14:02;66.22;;;20.35;;
8694;SDS011;65580;49.446;6.854;2023-02-11T22:18:06;59.20;;;20.20;;
8694;SDS011;65580;49.446;6.854;2023-02-11T22:22:10;76.50;;;20.83;;
8694;SDS011;65580;49.446;6.854;2023-02-11T22:26:20;61.90;;;20.17;;
8694;SDS011;65580;49.446;6.854;2023-02-11T22:30:25;57.63;;;19.23;;
8694;SDS011;65580;49.446;6.854;2023-02-11T22:34:31;81.28;;;22.48;;
8694;SDS011;65580;49.446;6.854;2023-02-11T22:38:35;67.90;;;19.85;;
8694;SDS011;65580;49.446;6.854;2023-02-11T22:42:41;65.70;;;19.42;;
8694;SDS011;65580;49.446;6.854;2023-02-11T22:46:45;51.97;;;17.92;;
8694;SDS011;65580;49.446;6.854;2023-02-11T22:50:49;65.72;;;18.45;;
8694;SDS011;65580;49.446;6.854;2023-02-11T22:54:53;50.60;;;16.45;;
8694;SDS011;65580;49.446;6.854;2023-02-11T22:58:58;61.13;;;19.00;;
8694;SDS011;65580;49.446;6.854;2023-02-11T23:03:03;57.25;;;17.48;;
8694;SDS011;65580;49.446;6.854;2023-02-11T23:11:11;68.13;;;19.65;;
8694;SDS011;65580;49.446;6.854;2023-02-11T23:15:20;59.78;;;17.55;;
8694;SDS011;65580;49.446;6.854;2023-02-11T23:19:24;64.15;;;17.80;;
8694;SDS011;65580;49.446;6.854;2023-02-11T23:23:27;60.70;;;18.60;;
8694;SDS011;65580;49.446;6.854;2023-02-11T23:27:31;100.60;;;24.50;;
8694;SDS011;65580;49.446;6.854;2023-02-11T23:31:37;101.60;;;25.77;;
8694;SDS011;65580;49.446;6.854;2023-02-11T23:35:44;61.75;;;18.35;;
8694;SDS011;65580;49.446;6.854;2023-02-11T23:39:48;101.80;;;25.00;;
8694;SDS011;65580;49.446;6.854;2023-02-11T23:43:52;65.53;;;20.35;;
8694;SDS011;65580;49.446;6.854;2023-02-11T23:47:58;61.00;;;18.73;;
8694;SDS011;65580;49.446;6.854;2023-02-11T23:52:05;57.47;;;17.83;;
8694;SDS011;65580;49.446;6.854;2023-02-11T23:56:12;78.13;;;21.88;;
